sensor_id;sensor_type;location;lat;lon;timestamp;temperature;humidity
44215;DHT22;29884;47.450;19.124;2023-03-21T00:01:49;10.00;99.90
44215;DHT22;29884;47.450;19.124;2023-03-21T00:04:16;10.00;99.90
44215;DHT22;29884;47.450;19.124;2023-03-21T00:06:42;10.00;99.90
44215;DHT22;29884;47.450;19.124;2023-03-21T00:09:08;10.10;99.90
44215;DHT22;29884;47.450;19.124;2023-03-21T00:11:33;10.10;99.90
44215;DHT22;29884;47.450;19.124;2023-03-21T00:14:00;10.10;99.90
44215;DHT22;29884;47.450;19.124;2023-03-21T00:16:27;10.10;99.90
44215;DHT22;29884;47.450;19.124;2023-03-21T00:18:55;10.20;99.90
44215;DHT22;29884;47.450;19.124;2023-03-21T00:21:23;10.20;99.90
44215;DHT22;29884;47.450;19.124;2023-03-21T00:23:59;10.00;99.90
44215;DHT22;29884;47.450;19.124;2023-03-21T00:26:25;9.90;99.90
44215;DHT22;29884;47.450;19.124;2023-03-21T00:28:51;9.90;99.90
44215;DHT22;29884;47.450;19.124;2023-03-21T00:31:17;9.90;99.90
44215;DHT22;29884;47.450;19.124;2023-03-21T00:33:43;9.90;99.90
44215;DHT22;29884;47.450;19.124;2023-03-21T00:36:11;9.80;99.90
44215;DHT22;29884;47.450;19.124;2023-03-21T00:38:37;9.70;99.90
44215;DHT22;29884;47.450;19.124;2023-03-21T00:41:07;9.60;99.90
44215;DHT22;29884;47.450;19.124;2023-03-21T00:43:33;9.60;99.90
44215;DHT22;29884;47.450;19.124;2023-03-21T00:45:59;9.50;99.90
44215;DHT22;29884;47.450;19.124;2023-03-21T00:48:26;9.50;99.90
44215;DHT22;29884;47.450;19.124;2023-03-21T00:50:54;9.50;99.90
44215;DHT22;29884;47.450;19.124;2023-03-21T00:53:21;9.50;99.90
44215;DHT22;29884;47.450;19.124;2023-03-21T00:55:47;9.50;99.90
44215;DHT22;29884;47.450;19.124;2023-03-21T00:58:13;9.40;99.90
44215;DHT22;29884;47.450;19.124;2023-03-21T01:00:40;9.40;99.90
44215;DHT22;29884;47.450;19.124;2023-03-21T01:03:07;9.30;99.90
44215;DHT22;29884;47.450;19.124;2023-03-21T01:05:37;9.20;99.90
44215;DHT22;29884;47.450;19.124;2023-03-21T01:08:22;9.20;99.90
44215;DHT22;29884;47.450;19.124;2023-03-21T01:10:50;9.20;99.90
44215;DHT22;29884;47.450;19.124;2023-03-21T01:13:17;9.20;99.90
44215;DHT22;29884;47.450;19.124;2023-03-21T01:15:47;9.10;99.90
44215;DHT22;29884;47.450;19.124;2023-03-21T01:18:15;9.10;99.90
44215;DHT22;29884;47.450;19.124;2023-03-21T01:20:42;9.00;99.90
44215;DHT22;29884;47.450;19.124;2023-03-21T01:23:09;9.00;99.90
44215;DHT22;29884;47.450;19.124;2023-03-21T01:25:35;9.00;99.90
44215;DHT22;29884;47.450;19.124;2023-03-21T01:28:00;9.00;99.90
44215;DHT22;29884;47.450;19.124;2023-03-21T01:30:26;8.90;99.90
44215;DHT22;29884;47.450;19.124;2023-03-21T01:32:52;8.90;99.90
44215;DHT22;29884;47.450;19.124;2023-03-21T01:35:18;8.80;99.90
44215;DHT22;29884;47.450;19.124;2023-03-21T01:37:44;8.80;99.90
44215;DHT22;29884;47.450;19.124;2023-03-21T01:40:33;8.90;99.90
44215;DHT22;29884;47.450;19.124;2023-03-21T01:42:58;9.10;99.90
44215;DHT22;29884;47.450;19.124;2023-03-21T01:48:49;9.60;99.90
44215;DHT22;29884;47.450;19.124;2023-03-21T01:51:16;9.70;99.90
44215;DHT22;29884;47.450;19.124;2023-03-21T01:53:42;9.80;99.90
44215;DHT22;29884;47.450;19.124;2023-03-21T01:56:22;10.00;99.90
44215;DHT22;29884;47.450;19.124;2023-03-21T01:58:50;10.10;99.90
44215;DHT22;29884;47.450;19.124;2023-03-21T02:01:20;10.20;99.90
44215;DHT22;29884;47.450;19.124;2023-03-21T02:03:48;10.20;99.90
44215;DHT22;29884;47.450;19.124;2023-03-21T02:06:27;10.20;99.90
44215;DHT22;29884;47.450;19.124;2023-03-21T02:08:59;10.40;99.90
44215;DHT22;29884;47.450;19.124;2023-03-21T02:11:25;10.50;99.90
44215;DHT22;29884;47.450;19.124;2023-03-21T02:13:51;10.50;99.90
44215;DHT22;29884;47.450;19.124;2023-03-21T02:16:24;10.70;99.90
44215;DHT22;29884;47.450;19.124;2023-03-21T02:25:20;10.90;99.90
44215;DHT22;29884;47.450;19.124;2023-03-21T02:33:51;10.60;99.90
44215;DHT22;29884;47.450;19.124;2023-03-21T02:39:28;10.60;99.90
44215;DHT22;29884;47.450;19.124;2023-03-21T02:47:08;10.40;99.90
44215;DHT22;29884;47.450;19.124;2023-03-21T02:49:48;10.40;99.90
44215;DHT22;29884;47.450;19.124;2023-03-21T02:52:20;10.30;99.90
44215;DHT22;29884;47.450;19.124;2023-03-21T02:54:47;10.30;99.90
44215;DHT22;29884;47.450;19.124;2023-03-21T02:57:16;10.30;99.90
44215;DHT22;29884;47.450;19.124;2023-03-21T02:59:43;10.30;99.90
44215;DHT22;29884;47.450;19.124;2023-03-21T03:02:09;10.30;99.90
44215;DHT22;29884;47.450;19.124;2023-03-21T03:04:35;10.20;99.90
44215;DHT22;29884;47.450;19.124;2023-03-21T03:10:02;10.10;99.90
44215;DHT22;29884;47.450;19.124;2023-03-21T03:21:11;9.90;99.90
44215;DHT22;29884;47.450;19.124;2023-03-21T03:28:49;9.70;99.90
44215;DHT22;29884;47.450;19.124;2023-03-21T03:31:22;9.70;99.90
44215;DHT22;29884;47.450;19.124;2023-03-21T03:33:52;9.70;99.90
44215;DHT22;29884;47.450;19.124;2023-03-21T03:36:20;9.80;99.90
44215;DHT22;29884;47.450;19.124;2023-03-21T03:38:48;9.70;99.90
44215;DHT22;29884;47.450;19.124;2023-03-21T03:41:24;9.60;99.90
44215;DHT22;29884;47.450;19.124;2023-03-21T03:43:57;9.50;99.90
44215;DHT22;29884;47.450;19.124;2023-03-21T03:46:29;9.50;99.90
44215;DHT22;29884;47.450;19.124;2023-03-21T03:49:03;9.40;99.90
44215;DHT22;29884;47.450;19.124;2023-03-21T03:54:26;9.50;99.90
44215;DHT22;29884;47.450;19.124;2023-03-21T03:56:53;9.50;99.90
44215;DHT22;29884;47.450;19.124;2023-03-21T03:59:19;9.50;99.90
44215;DHT22;29884;47.450;19.124;2023-03-21T04:01:50;9.40;99.90
44215;DHT22;29884;47.450;19.124;2023-03-21T04:04:16;9.50;99.90
44215;DHT22;29884;47.450;19.124;2023-03-21T04:06:43;9.40;99.90
44215;DHT22;29884;47.450;19.124;2023-03-21T04:09:10;9.50;99.90
44215;DHT22;29884;47.450;19.124;2023-03-21T04:11:36;9.40;99.90
44215;DHT22;29884;47.450;19.124;2023-03-21T04:14:01;9.40;99.90
44215;DHT22;29884;47.450;19.124;2023-03-21T04:16:27;9.30;99.90
44215;DHT22;29884;47.450;19.124;2023-03-21T04:18:55;9.30;99.90
44215;DHT22;29884;47.450;19.124;2023-03-21T04:21:21;9.20;99.90
44215;DHT22;29884;47.450;19.124;2023-03-21T04:23:47;9.20;99.90
44215;DHT22;29884;47.450;19.124;2023-03-21T04:26:12;9.20;99.90
44215;DHT22;29884;47.450;19.124;2023-03-21T04:28:38;9.20;99.90
44215;DHT22;29884;47.450;19.124;2023-03-21T04:31:06;9.10;99.90
44215;DHT22;29884;47.450;19.124;2023-03-21T04:33:33;9.10;99.90
44215;DHT22;29884;47.450;19.124;2023-03-21T04:36:04;9.10;99.90
44215;DHT22;29884;47.450;19.124;2023-03-21T04:38:31;9.20;99.90
44215;DHT22;29884;47.450;19.124;2023-03-21T04:40:59;9.10;99.90
44215;DHT22;29884;47.450;19.124;2023-03-21T04:43:25;9.10;99.90
44215;DHT22;29884;47.450;19.124;2023-03-21T04:45:51;9.00;99.90
44215;DHT22;29884;47.450;19.124;2023-03-21T04:48:17;8.90;99.90
44215;DHT22;29884;47.450;19.124;2023-03-21T04:50:44;8.90;99.90
44215;DHT22;29884;47.450;19.124;2023-03-21T04:53:11;8.90;99.90
44215;DHT22;29884;47.450;19.124;2023-03-21T04:55:36;8.90;99.90
44215;DHT22;29884;47.450;19.124;2023-03-21T04:58:03;8.80;99.90
44215;DHT22;29884;47.450;19.124;2023-03-21T05:00:29;8.80;99.90
44215;DHT22;29884;47.450;19.124;2023-03-21T05:02:56;8.80;99.90
44215;DHT22;29884;47.450;19.124;2023-03-21T05:05:23;8.80;99.90
44215;DHT22;29884;47.450;19.124;2023-03-21T05:07:49;8.80;99.90
44215;DHT22;29884;47.450;19.124;2023-03-21T05:10:15;8.80;99.90
44215;DHT22;29884;47.450;19.124;2023-03-21T05:12:42;8.70;99.90
44215;DHT22;29884;47.450;19.124;2023-03-21T05:15:08;8.70;99.90
44215;DHT22;29884;47.450;19.124;2023-03-21T05:17:34;8.70;99.90
44215;DHT22;29884;47.450;19.124;2023-03-21T05:19:59;8.70;99.90
44215;DHT22;29884;47.450;19.124;2023-03-21T05:22:25;8.70;99.90
44215;DHT22;29884;47.450;19.124;2023-03-21T05:24:53;8.70;99.90
44215;DHT22;29884;47.450;19.124;2023-03-21T05:27:20;8.80;99.90
44215;DHT22;29884;47.450;19.124;2023-03-21T05:30:04;8.80;99.90
44215;DHT22;29884;47.450;19.124;2023-03-21T05:32:31;8.80;99.90
44215;DHT22;29884;47.450;19.124;2023-03-21T05:34:57;9.00;99.90
44215;DHT22;29884;47.450;19.124;2023-03-21T05:37:23;9.20;99.90
44215;DHT22;29884;47.450;19.124;2023-03-21T05:39:49;9.30;99.90
44215;DHT22;29884;47.450;19.124;2023-03-21T05:42:16;9.60;99.90
44215;DHT22;29884;47.450;19.124;2023-03-21T05:44:43;9.80;99.90
44215;DHT22;29884;47.450;19.124;2023-03-21T05:47:14;9.90;99.90
44215;DHT22;29884;47.450;19.124;2023-03-21T05:49:40;9.90;99.90
44215;DHT22;29884;47.450;19.124;2023-03-21T05:52:07;10.20;99.90
44215;DHT22;29884;47.450;19.124;2023-03-21T05:54:33;10.60;99.90
44215;DHT22;29884;47.450;19.124;2023-03-21T05:56:59;11.20;99.90
44215;DHT22;29884;47.450;19.124;2023-03-21T05:59:25;11.50;99.90
44215;DHT22;29884;47.450;19.124;2023-03-21T06:01:51;11.60;99.90
44215;DHT22;29884;47.450;19.124;2023-03-21T06:04:16;11.70;99.90
44215;DHT22;29884;47.450;19.124;2023-03-21T06:06:42;11.60;99.90
44215;DHT22;29884;47.450;19.124;2023-03-21T06:09:08;11.60;99.90
44215;DHT22;29884;47.450;19.124;2023-03-21T06:11:35;11.60;99.90
44215;DHT22;29884;47.450;19.124;2023-03-21T06:14:02;11.60;99.90
44215;DHT22;29884;47.450;19.124;2023-03-21T06:16:27;11.70;99.90
44215;DHT22;29884;47.450;19.124;2023-03-21T06:18:54;11.90;99.90
44215;DHT22;29884;47.450;19.124;2023-03-21T06:21:20;12.00;99.90
44215;DHT22;29884;47.450;19.124;2023-03-21T06:23:46;12.10;99.90
44215;DHT22;29884;47.450;19.124;2023-03-21T06:26:12;12.10;99.90
44215;DHT22;29884;47.450;19.124;2023-03-21T06:28:38;12.10;99.90
44215;DHT22;29884;47.450;19.124;2023-03-21T06:31:04;12.20;99.90
44215;DHT22;29884;47.450;19.124;2023-03-21T06:33:30;12.40;99.90
44215;DHT22;29884;47.450;19.124;2023-03-21T06:35:57;12.40;99.90
44215;DHT22;29884;47.450;19.124;2023-03-21T06:38:24;12.60;99.90
44215;DHT22;29884;47.450;19.124;2023-03-21T06:40:50;12.70;99.90
44215;DHT22;29884;47.450;19.124;2023-03-21T06:43:16;13.00;99.90
44215;DHT22;29884;47.450;19.124;2023-03-21T06:45:42;13.00;99.90
44215;DHT22;29884;47.450;19.124;2023-03-21T06:48:08;13.10;99.90
44215;DHT22;29884;47.450;19.124;2023-03-21T06:50:34;13.20;99.90
44215;DHT22;29884;47.450;19.124;2023-03-21T06:53:00;13.50;99.90
44215;DHT22;29884;47.450;19.124;2023-03-21T06:55:35;13.50;99.90
44215;DHT22;29884;47.450;19.124;2023-03-21T06:58:03;13.40;99.90
44215;DHT22;29884;47.450;19.124;2023-03-21T07:00:29;13.40;99.90
44215;DHT22;29884;47.450;19.124;2023-03-21T07:02:55;13.20;99.90
44215;DHT22;29884;47.450;19.124;2023-03-21T07:05:21;13.20;99.90
44215;DHT22;29884;47.450;19.124;2023-03-21T07:07:46;13.10;99.90
44215;DHT22;29884;47.450;19.124;2023-03-21T07:10:13;13.10;99.90
44215;DHT22;29884;47.450;19.124;2023-03-21T07:12:39;13.00;99.90
44215;DHT22;29884;47.450;19.124;2023-03-21T07:15:06;13.10;99.90
44215;DHT22;29884;47.450;19.124;2023-03-21T07:17:31;13.50;99.90
44215;DHT22;29884;47.450;19.124;2023-03-21T07:19:58;14.00;99.90
44215;DHT22;29884;47.450;19.124;2023-03-21T07:22:24;14.10;99.90
44215;DHT22;29884;47.450;19.124;2023-03-21T07:24:50;14.20;99.90
44215;DHT22;29884;47.450;19.124;2023-03-21T07:27:17;14.60;99.90
44215;DHT22;29884;47.450;19.124;2023-03-21T07:29:42;14.70;99.90
44215;DHT22;29884;47.450;19.124;2023-03-21T07:32:09;14.80;99.90
44215;DHT22;29884;47.450;19.124;2023-03-21T07:34:36;15.00;99.90
44215;DHT22;29884;47.450;19.124;2023-03-21T07:37:02;15.00;99.90
44215;DHT22;29884;47.450;19.124;2023-03-21T07:39:28;15.20;99.90
44215;DHT22;29884;47.450;19.124;2023-03-21T07:41:54;15.20;99.90
44215;DHT22;29884;47.450;19.124;2023-03-21T07:44:23;15.30;99.90
44215;DHT22;29884;47.450;19.124;2023-03-21T07:46:49;15.30;99.90
44215;DHT22;29884;47.450;19.124;2023-03-21T07:49:15;15.50;99.90
44215;DHT22;29884;47.450;19.124;2023-03-21T07:51:41;15.70;99.90
44215;DHT22;29884;47.450;19.124;2023-03-21T07:54:06;15.70;99.90
44215;DHT22;29884;47.450;19.124;2023-03-21T07:56:32;15.80;99.90
44215;DHT22;29884;47.450;19.124;2023-03-21T07:58:58;15.90;99.90
44215;DHT22;29884;47.450;19.124;2023-03-21T08:01:24;15.90;99.90
44215;DHT22;29884;47.450;19.124;2023-03-21T08:03:51;16.00;99.60
44215;DHT22;29884;47.450;19.124;2023-03-21T08:06:21;16.50;99.60
44215;DHT22;29884;47.450;19.124;2023-03-21T08:08:47;16.40;99.00
44215;DHT22;29884;47.450;19.124;2023-03-21T08:11:13;16.30;98.60
44215;DHT22;29884;47.450;19.124;2023-03-21T08:13:40;16.50;98.70
44215;DHT22;29884;47.450;19.124;2023-03-21T08:16:08;16.60;97.50
44215;DHT22;29884;47.450;19.124;2023-03-21T08:18:34;16.80;96.60
44215;DHT22;29884;47.450;19.124;2023-03-21T08:20:59;16.80;96.90
44215;DHT22;29884;47.450;19.124;2023-03-21T08:23:25;17.20;97.20
44215;DHT22;29884;47.450;19.124;2023-03-21T08:25:52;17.20;94.60
44215;DHT22;29884;47.450;19.124;2023-03-21T08:28:19;17.30;94.00
44215;DHT22;29884;47.450;19.124;2023-03-21T08:30:45;17.10;94.30
44215;DHT22;29884;47.450;19.124;2023-03-21T08:33:11;17.30;93.70
44215;DHT22;29884;47.450;19.124;2023-03-21T08:35:38;17.30;93.60
44215;DHT22;29884;47.450;19.124;2023-03-21T08:38:05;17.60;92.50
44215;DHT22;29884;47.450;19.124;2023-03-21T08:40:32;17.60;91.20
44215;DHT22;29884;47.450;19.124;2023-03-21T08:42:58;17.50;90.00
44215;DHT22;29884;47.450;19.124;2023-03-21T08:45:23;17.40;90.10
44215;DHT22;29884;47.450;19.124;2023-03-21T08:47:50;17.60;90.20
44215;DHT22;29884;47.450;19.124;2023-03-21T08:50:21;17.70;85.80
44215;DHT22;29884;47.450;19.124;2023-03-21T08:52:48;18.00;85.40
44215;DHT22;29884;47.450;19.124;2023-03-21T08:55:14;17.90;84.00
44215;DHT22;29884;47.450;19.124;2023-03-21T08:57:41;17.90;84.30
44215;DHT22;29884;47.450;19.124;2023-03-21T09:00:09;18.00;84.20
44215;DHT22;29884;47.450;19.124;2023-03-21T09:02:38;18.00;84.60
44215;DHT22;29884;47.450;19.124;2023-03-21T09:05:04;18.10;83.10
44215;DHT22;29884;47.450;19.124;2023-03-21T09:07:31;18.40;83.30
44215;DHT22;29884;47.450;19.124;2023-03-21T09:09:59;18.40;80.90
44215;DHT22;29884;47.450;19.124;2023-03-21T09:12:25;18.30;81.30
44215;DHT22;29884;47.450;19.124;2023-03-21T09:14:50;18.30;80.50
44215;DHT22;29884;47.450;19.124;2023-03-21T09:17:18;18.20;78.70
44215;DHT22;29884;47.450;19.124;2023-03-21T09:19:44;18.40;80.60
44215;DHT22;29884;47.450;19.124;2023-03-21T09:22:12;18.10;77.80
44215;DHT22;29884;47.450;19.124;2023-03-21T09:24:43;18.10;79.60
44215;DHT22;29884;47.450;19.124;2023-03-21T09:27:15;18.30;78.90
44215;DHT22;29884;47.450;19.124;2023-03-21T09:29:48;18.10;77.00
44215;DHT22;29884;47.450;19.124;2023-03-21T09:32:14;17.50;76.90
44215;DHT22;29884;47.450;19.124;2023-03-21T09:34:40;17.30;77.80
44215;DHT22;29884;47.450;19.124;2023-03-21T09:37:07;17.50;76.60
44215;DHT22;29884;47.450;19.124;2023-03-21T09:39:41;18.00;74.20
44215;DHT22;29884;47.450;19.124;2023-03-21T09:47:26;17.90;74.80
44215;DHT22;29884;47.450;19.124;2023-03-21T09:50:03;18.10;75.70
44215;DHT22;29884;47.450;19.124;2023-03-21T09:55:05;18.30;76.30
44215;DHT22;29884;47.450;19.124;2023-03-21T09:57:46;18.30;76.20
44215;DHT22;29884;47.450;19.124;2023-03-21T10:00:25;17.90;76.10
44215;DHT22;29884;47.450;19.124;2023-03-21T10:02:54;17.80;77.00
44215;DHT22;29884;47.450;19.124;2023-03-21T10:05:29;18.10;76.20
44215;DHT22;29884;47.450;19.124;2023-03-21T10:08:07;18.20;75.50
44215;DHT22;29884;47.450;19.124;2023-03-21T10:10:36;18.30;74.20
44215;DHT22;29884;47.450;19.124;2023-03-21T10:13:09;18.20;75.10
44215;DHT22;29884;47.450;19.124;2023-03-21T10:15:36;18.30;74.30
44215;DHT22;29884;47.450;19.124;2023-03-21T10:18:05;18.10;75.30
44215;DHT22;29884;47.450;19.124;2023-03-21T10:20:34;18.00;76.30
44215;DHT22;29884;47.450;19.124;2023-03-21T10:23:03;18.20;75.50
44215;DHT22;29884;47.450;19.124;2023-03-21T10:25:40;18.30;74.90
44215;DHT22;29884;47.450;19.124;2023-03-21T10:28:12;18.60;73.00
44215;DHT22;29884;47.450;19.124;2023-03-21T10:30:52;18.40;70.20
44215;DHT22;29884;47.450;19.124;2023-03-21T10:33:28;18.30;68.80
44215;DHT22;29884;47.450;19.124;2023-03-21T10:35:59;18.40;72.00
44215;DHT22;29884;47.450;19.124;2023-03-21T10:38:26;18.40;72.30
44215;DHT22;29884;47.450;19.124;2023-03-21T10:40:53;18.40;72.70
44215;DHT22;29884;47.450;19.124;2023-03-21T10:45:51;18.30;69.80
44215;DHT22;29884;47.450;19.124;2023-03-21T10:48:17;18.40;70.90
44215;DHT22;29884;47.450;19.124;2023-03-21T10:50:47;18.60;70.10
44215;DHT22;29884;47.450;19.124;2023-03-21T10:53:38;18.70;70.70
44215;DHT22;29884;47.450;19.124;2023-03-21T10:56:07;18.70;70.30
44215;DHT22;29884;47.450;19.124;2023-03-21T10:58:39;18.60;70.40
44215;DHT22;29884;47.450;19.124;2023-03-21T11:01:10;18.70;71.10
44215;DHT22;29884;47.450;19.124;2023-03-21T11:03:41;18.80;70.60
44215;DHT22;29884;47.450;19.124;2023-03-21T11:06:22;18.70;68.90
44215;DHT22;29884;47.450;19.124;2023-03-21T11:08:54;18.80;69.20
44215;DHT22;29884;47.450;19.124;2023-03-21T11:11:27;19.00;66.30
44215;DHT22;29884;47.450;19.124;2023-03-21T11:14:05;18.80;65.20
44215;DHT22;29884;47.450;19.124;2023-03-21T11:16:41;18.80;65.20
44215;DHT22;29884;47.450;19.124;2023-03-21T11:19:15;18.70;66.70
44215;DHT22;29884;47.450;19.124;2023-03-21T11:21:42;18.80;66.20
44215;DHT22;29884;47.450;19.124;2023-03-21T11:24:16;18.70;68.40
44215;DHT22;29884;47.450;19.124;2023-03-21T11:26:45;19.00;68.10
44215;DHT22;29884;47.450;19.124;2023-03-21T11:31:47;19.00;66.10
44215;DHT22;29884;47.450;19.124;2023-03-21T11:34:25;19.10;64.90
44215;DHT22;29884;47.450;19.124;2023-03-21T11:36:52;18.70;63.40
44215;DHT22;29884;47.450;19.124;2023-03-21T11:39:36;18.40;65.20
44215;DHT22;29884;47.450;19.124;2023-03-21T11:42:13;18.60;65.80
44215;DHT22;29884;47.450;19.124;2023-03-21T11:44:57;18.60;65.30
44215;DHT22;29884;47.450;19.124;2023-03-21T11:47:24;19.00;65.40
44215;DHT22;29884;47.450;19.124;2023-03-21T11:49:50;19.20;64.30
44215;DHT22;29884;47.450;19.124;2023-03-21T11:52:33;19.00;63.90
44215;DHT22;29884;47.450;19.124;2023-03-21T11:55:40;18.90;65.30
44215;DHT22;29884;47.450;19.124;2023-03-21T11:58:23;19.00;64.50
44215;DHT22;29884;47.450;19.124;2023-03-21T12:01:37;18.90;62.60
44215;DHT22;29884;47.450;19.124;2023-03-21T12:04:17;19.10;62.50
44215;DHT22;29884;47.450;19.124;2023-03-21T12:06:53;19.30;62.20
44215;DHT22;29884;47.450;19.124;2023-03-21T12:09:34;18.90;61.10
44215;DHT22;29884;47.450;19.124;2023-03-21T12:17:31;19.00;62.00
44215;DHT22;29884;47.450;19.124;2023-03-21T12:20:24;19.50;60.10
44215;DHT22;29884;47.450;19.124;2023-03-21T12:25:55;19.30;61.80
44215;DHT22;29884;47.450;19.124;2023-03-21T12:31:08;19.30;63.80
44215;DHT22;29884;47.450;19.124;2023-03-21T12:36:23;18.70;64.20
44215;DHT22;29884;47.450;19.124;2023-03-21T12:47:00;17.90;64.10
44215;DHT22;29884;47.450;19.124;2023-03-21T12:52:29;17.70;64.50
44215;DHT22;29884;47.450;19.124;2023-03-21T12:55:13;17.50;63.70
44215;DHT22;29884;47.450;19.124;2023-03-21T12:57:57;17.30;61.40
44215;DHT22;29884;47.450;19.124;2023-03-21T13:06:00;17.30;64.90
44215;DHT22;29884;47.450;19.124;2023-03-21T13:11:03;17.80;64.80
44215;DHT22;29884;47.450;19.124;2023-03-21T13:13:51;18.30;64.60
44215;DHT22;29884;47.450;19.124;2023-03-21T13:16:41;18.60;62.70
44215;DHT22;29884;47.450;19.124;2023-03-21T13:19:25;18.90;60.90
44215;DHT22;29884;47.450;19.124;2023-03-21T13:22:04;19.10;61.20
44215;DHT22;29884;47.450;19.124;2023-03-21T13:24:42;18.70;61.90
44215;DHT22;29884;47.450;19.124;2023-03-21T13:27:31;18.50;62.10
44215;DHT22;29884;47.450;19.124;2023-03-21T13:30:16;18.20;62.80
44215;DHT22;29884;47.450;19.124;2023-03-21T13:32:44;18.10;62.70
44215;DHT22;29884;47.450;19.124;2023-03-21T13:35:15;17.90;63.50
44215;DHT22;29884;47.450;19.124;2023-03-21T13:40:26;17.80;63.20
44215;DHT22;29884;47.450;19.124;2023-03-21T13:42:55;17.70;59.30
44215;DHT22;29884;47.450;19.124;2023-03-21T13:45:33;17.50;60.50
44215;DHT22;29884;47.450;19.124;2023-03-21T13:54:17;17.30;60.80
44215;DHT22;29884;47.450;19.124;2023-03-21T13:59:16;17.30;63.10
44215;DHT22;29884;47.450;19.124;2023-03-21T14:04:58;17.10;64.40
44215;DHT22;29884;47.450;19.124;2023-03-21T14:07:42;17.40;62.60
44215;DHT22;29884;47.450;19.124;2023-03-21T14:10:23;17.70;61.00
44215;DHT22;29884;47.450;19.124;2023-03-21T14:12:51;18.00;60.20
44215;DHT22;29884;47.450;19.124;2023-03-21T14:15:26;18.10;60.40
44215;DHT22;29884;47.450;19.124;2023-03-21T14:17:55;17.90;60.70
44215;DHT22;29884;47.450;19.124;2023-03-21T14:20:25;17.70;61.50
44215;DHT22;29884;47.450;19.124;2023-03-21T14:22:51;17.60;62.40
44215;DHT22;29884;47.450;19.124;2023-03-21T14:25:19;17.80;62.40
44215;DHT22;29884;47.450;19.124;2023-03-21T14:27:48;17.90;62.60
44215;DHT22;29884;47.450;19.124;2023-03-21T14:30:24;18.00;62.20
44215;DHT22;29884;47.450;19.124;2023-03-21T14:32:56;18.20;62.30
44215;DHT22;29884;47.450;19.124;2023-03-21T14:35:24;18.20;62.00
44215;DHT22;29884;47.450;19.124;2023-03-21T14:37:53;18.20;60.90
44215;DHT22;29884;47.450;19.124;2023-03-21T14:40:24;18.20;60.80
44215;DHT22;29884;47.450;19.124;2023-03-21T14:42:51;18.20;59.30
44215;DHT22;29884;47.450;19.124;2023-03-21T14:45:23;18.20;59.40
44215;DHT22;29884;47.450;19.124;2023-03-21T14:48:03;18.30;58.10
44215;DHT22;29884;47.450;19.124;2023-03-21T14:50:45;18.30;57.60
44215;DHT22;29884;47.450;19.124;2023-03-21T14:53:19;18.30;57.00
44215;DHT22;29884;47.450;19.124;2023-03-21T14:56:01;18.20;57.20
44215;DHT22;29884;47.450;19.124;2023-03-21T14:58:29;18.20;58.00
44215;DHT22;29884;47.450;19.124;2023-03-21T15:00:59;17.90;59.30
44215;DHT22;29884;47.450;19.124;2023-03-21T15:03:26;17.80;61.20
44215;DHT22;29884;47.450;19.124;2023-03-21T15:05:54;17.80;62.70
44215;DHT22;29884;47.450;19.124;2023-03-21T15:08:25;17.80;62.40
44215;DHT22;29884;47.450;19.124;2023-03-21T15:11:04;17.70;62.60
44215;DHT22;29884;47.450;19.124;2023-03-21T15:13:49;17.60;63.10
44215;DHT22;29884;47.450;19.124;2023-03-21T15:16:19;17.50;62.60
44215;DHT22;29884;47.450;19.124;2023-03-21T15:18:46;17.50;63.10
44215;DHT22;29884;47.450;19.124;2023-03-21T15:21:37;17.60;63.20
44215;DHT22;29884;47.450;19.124;2023-03-21T15:26:49;17.60;62.20
44215;DHT22;29884;47.450;19.124;2023-03-21T15:29:16;17.50;61.40
44215;DHT22;29884;47.450;19.124;2023-03-21T15:31:45;17.30;60.80
44215;DHT22;29884;47.450;19.124;2023-03-21T15:34:22;17.30;60.60
44215;DHT22;29884;47.450;19.124;2023-03-21T15:36:54;17.30;61.90
44215;DHT22;29884;47.450;19.124;2023-03-21T15:39:21;17.40;61.70
44215;DHT22;29884;47.450;19.124;2023-03-21T15:42:03;17.30;62.50
44215;DHT22;29884;47.450;19.124;2023-03-21T15:44:29;17.30;63.10
44215;DHT22;29884;47.450;19.124;2023-03-21T15:46:56;17.20;64.20
44215;DHT22;29884;47.450;19.124;2023-03-21T15:49:30;17.00;65.50
44215;DHT22;29884;47.450;19.124;2023-03-21T15:52:11;16.90;66.70
44215;DHT22;29884;47.450;19.124;2023-03-21T15:54:46;16.80;67.00
44215;DHT22;29884;47.450;19.124;2023-03-21T15:57:26;16.70;67.30
44215;DHT22;29884;47.450;19.124;2023-03-21T16:00:19;16.70;68.20
44215;DHT22;29884;47.450;19.124;2023-03-21T16:02:47;16.50;68.80
44215;DHT22;29884;47.450;19.124;2023-03-21T16:05:29;16.50;69.10
44215;DHT22;29884;47.450;19.124;2023-03-21T16:08:04;16.50;69.10
44215;DHT22;29884;47.450;19.124;2023-03-21T16:10:36;16.40;69.60
44215;DHT22;29884;47.450;19.124;2023-03-21T16:13:03;16.30;70.10
44215;DHT22;29884;47.450;19.124;2023-03-21T16:15:29;16.30;70.10
44215;DHT22;29884;47.450;19.124;2023-03-21T16:17:58;16.30;70.30
44215;DHT22;29884;47.450;19.124;2023-03-21T16:20:27;16.20;70.60
44215;DHT22;29884;47.450;19.124;2023-03-21T16:22:53;16.20;70.70
44215;DHT22;29884;47.450;19.124;2023-03-21T16:25:19;16.20;70.70
44215;DHT22;29884;47.450;19.124;2023-03-21T16:27:46;16.00;70.80
44215;DHT22;29884;47.450;19.124;2023-03-21T16:30:13;15.90;71.40
44215;DHT22;29884;47.450;19.124;2023-03-21T16:32:40;15.90;70.90
44215;DHT22;29884;47.450;19.124;2023-03-21T16:35:06;15.90;71.10
44215;DHT22;29884;47.450;19.124;2023-03-21T16:37:33;15.80;70.90
44215;DHT22;29884;47.450;19.124;2023-03-21T16:39:59;15.70;71.30
44215;DHT22;29884;47.450;19.124;2023-03-21T16:42:25;15.60;71.40
44215;DHT22;29884;47.450;19.124;2023-03-21T16:44:51;15.60;71.40
44215;DHT22;29884;47.450;19.124;2023-03-21T16:47:20;15.60;72.20
44215;DHT22;29884;47.450;19.124;2023-03-21T16:49:48;15.50;72.10
44215;DHT22;29884;47.450;19.124;2023-03-21T16:52:14;15.40;72.60
44215;DHT22;29884;47.450;19.124;2023-03-21T16:54:40;15.40;72.70
44215;DHT22;29884;47.450;19.124;2023-03-21T16:57:14;15.30;72.80
44215;DHT22;29884;47.450;19.124;2023-03-21T16:59:43;15.40;72.70
44215;DHT22;29884;47.450;19.124;2023-03-21T17:02:13;15.30;73.20
44215;DHT22;29884;47.450;19.124;2023-03-21T17:04:40;15.20;73.10
44215;DHT22;29884;47.450;19.124;2023-03-21T17:07:09;15.20;73.40
44215;DHT22;29884;47.450;19.124;2023-03-21T17:09:39;15.10;73.90
44215;DHT22;29884;47.450;19.124;2023-03-21T17:12:09;15.10;73.90
44215;DHT22;29884;47.450;19.124;2023-03-21T17:14:38;15.10;74.40
44215;DHT22;29884;47.450;19.124;2023-03-21T17:17:07;15.00;74.60
44215;DHT22;29884;47.450;19.124;2023-03-21T17:19:33;14.90;74.80
44215;DHT22;29884;47.450;19.124;2023-03-21T17:21:59;14.90;74.90
44215;DHT22;29884;47.450;19.124;2023-03-21T17:24:25;14.90;75.10